createdAt,value
2022-10-17T00:00:18.135Z,8.02
2022-10-17T00:02:44.646Z,7.94
2022-10-17T00:05:12.148Z,7.85
2022-10-17T00:07:39.207Z,7.77
2022-10-17T00:10:07.299Z,7.82
2022-10-17T00:12:34.601Z,7.84
2022-10-17T00:15:03.963Z,7.92
2022-10-17T00:17:31.541Z,7.94
2022-10-17T00:20:01.661Z,8.03
2022-10-17T00:22:28.499Z,8.12
2022-10-17T00:24:55.072Z,8.07
2022-10-17T00:27:21.624Z,7.89
2022-10-17T00:29:49.917Z,7.78
2022-10-17T00:32:16.917Z,7.81
2022-10-17T00:34:43.671Z,7.94
2022-10-17T00:37:10.515Z,7.92
2022-10-17T00:39:37.176Z,7.91
2022-10-17T00:42:03.957Z,7.99
2022-10-17T00:44:30.588Z,7.97
2022-10-17T00:46:59.231Z,7.95
2022-10-17T00:49:28.747Z,7.94
2022-10-17T00:51:59.261Z,7.95
2022-10-17T00:54:33.539Z,7.93
2022-10-17T00:57:00.732Z,7.94
2022-10-17T00:59:28.547Z,8.01
2022-10-17T01:02:06.609Z,8.04
2022-10-17T01:04:33.141Z,7.98
2022-10-17T01:06:59.685Z,7.83
2022-10-17T01:09:27.297Z,7.70
2022-10-17T01:12:03.752Z,7.62
2022-10-17T01:14:40.602Z,7.55
2022-10-17T01:17:34.089Z,7.48
2022-10-17T01:20:19.547Z,7.44
2022-10-17T01:23:01.072Z,7.36
2022-10-17T01:25:49.121Z,7.33
2022-10-17T01:28:54.435Z,7.39
2022-10-17T01:31:25.864Z,7.42
2022-10-17T01:34:17.107Z,7.49
2022-10-17T01:36:52.221Z,7.53
2022-10-17T01:39:32.528Z,7.46
2022-10-17T01:42:27.864Z,7.38
2022-10-17T01:44:57.524Z,7.32
2022-10-17T01:47:29.610Z,7.30
2022-10-17T01:50:02.840Z,7.25
2022-10-17T01:52:37.001Z,7.23
2022-10-17T01:55:09.551Z,7.20
2022-10-17T01:57:40.881Z,7.14
2022-10-17T02:00:13.721Z,7.09
2022-10-17T02:02:43.296Z,7.02
2022-10-17T02:05:10.226Z,6.95
2022-10-17T02:07:36.797Z,6.92
2022-10-17T02:10:09.951Z,6.95
2022-10-17T02:12:54.297Z,6.94
2022-10-17T02:15:32.459Z,6.88
2022-10-17T02:18:14.187Z,6.92
2022-10-17T02:20:52.028Z,6.92
2022-10-17T02:23:30.481Z,6.99
2022-10-17T02:26:16.642Z,7.02
2022-10-17T02:28:47.500Z,6.94
2022-10-17T02:31:20.158Z,6.85
2022-10-17T02:33:54.679Z,6.80
2022-10-17T02:36:26.592Z,6.79
2022-10-17T02:38:55.198Z,6.82
2022-10-17T02:41:24.521Z,6.79
2022-10-17T02:43:53.086Z,6.75
2022-10-17T02:46:23.115Z,6.76
2022-10-17T02:49:22.001Z,6.75
2022-10-17T02:52:12.985Z,6.77
2022-10-17T02:54:51.298Z,6.75
2022-10-17T02:57:25.103Z,6.68
2022-10-17T02:59:52.407Z,6.70
2022-10-17T03:02:19.091Z,6.79
2022-10-17T03:04:47.244Z,6.80
2022-10-17T03:07:13.801Z,6.79
2022-10-17T03:09:40.470Z,6.78
2022-10-17T03:12:06.974Z,6.81
2022-10-17T03:14:33.540Z,6.82
2022-10-17T03:17:00.171Z,6.82
2022-10-17T03:19:26.683Z,6.80
2022-10-17T03:21:53.438Z,6.83
2022-10-17T03:24:19.965Z,6.84
2022-10-17T03:29:17.932Z,6.67
2022-10-17T03:31:44.488Z,6.63
2022-10-17T03:34:11.060Z,6.62
2022-10-17T03:36:37.647Z,6.62
2022-10-17T03:39:04.257Z,6.59
2022-10-17T03:41:30.781Z,6.53
2022-10-17T03:43:57.298Z,6.49
2022-10-17T03:46:23.852Z,6.53
2022-10-17T03:48:50.410Z,6.68
2022-10-17T03:51:16.975Z,6.81
2022-10-17T03:53:43.484Z,6.91
2022-10-17T03:56:22.066Z,6.95
2022-10-17T03:58:48.894Z,6.90
2022-10-17T04:01:17.142Z,6.85
2022-10-17T04:03:44.311Z,6.79
2022-10-17T04:06:12.784Z,6.76
2022-10-17T04:08:39.963Z,6.68
2022-10-17T04:11:08.450Z,6.58
2022-10-17T04:13:35.827Z,6.48
2022-10-17T04:16:05.273Z,6.43
2022-10-17T04:18:32.365Z,6.38
2022-10-17T04:21:01.798Z,6.37
2022-10-17T04:23:28.460Z,6.33
2022-10-17T04:25:59.309Z,6.37
2022-10-17T04:28:27.590Z,6.38
2022-10-17T04:31:11.922Z,6.40
2022-10-17T04:33:38.808Z,6.40
2022-10-17T04:36:08.350Z,6.38
2022-10-17T04:38:34.951Z,6.36
2022-10-17T04:41:03.678Z,6.34
2022-10-17T04:43:31.568Z,6.30
2022-10-17T04:46:02.499Z,6.28
2022-10-17T04:48:29.814Z,6.25
2022-10-17T04:51:02.036Z,6.26
2022-10-17T04:53:30.563Z,6.30
2022-10-17T04:55:57.371Z,6.30
2022-10-17T04:58:24.536Z,6.33
2022-10-17T05:00:51.192Z,6.33
2022-10-17T05:03:17.859Z,6.31
2022-10-17T05:05:44.411Z,6.26
2022-10-17T05:08:11.765Z,6.21
2022-10-17T05:10:39.769Z,6.16
2022-10-17T05:13:07.276Z,6.17
2022-10-17T05:15:34.163Z,6.15
2022-10-17T05:18:00.863Z,6.20
2022-10-17T05:20:27.799Z,6.23
2022-10-17T05:22:54.616Z,6.19
2022-10-17T05:25:21.863Z,6.21
2022-10-17T05:27:48.437Z,6.24
2022-10-17T05:30:14.967Z,6.27
2022-10-17T05:32:41.597Z,6.31
2022-10-17T05:35:08.271Z,6.30
2022-10-17T05:37:34.921Z,6.33
2022-10-17T05:40:01.748Z,6.37
2022-10-17T05:42:28.743Z,6.38
2022-10-17T05:44:55.473Z,6.41
2022-10-17T05:47:22.064Z,6.42
2022-10-17T05:49:52.337Z,6.43
2022-10-17T05:52:19.286Z,6.46
2022-10-17T05:54:45.960Z,6.47
2022-10-17T05:57:12.687Z,6.46
2022-10-17T05:59:39.253Z,6.44
2022-10-17T06:02:05.984Z,6.45
2022-10-17T06:04:32.694Z,6.49
2022-10-17T06:06:59.223Z,6.59
2022-10-17T06:09:25.743Z,6.67
2022-10-17T06:11:52.420Z,6.74
2022-10-17T06:14:18.929Z,6.77
2022-10-17T06:16:45.476Z,6.77
2022-10-17T06:19:12.096Z,6.86
2022-10-17T06:21:39.163Z,6.91
2022-10-17T06:24:06.085Z,6.93
2022-10-17T06:26:32.699Z,6.94
2022-10-17T06:28:59.300Z,6.95
2022-10-17T06:31:25.895Z,6.92
2022-10-17T06:33:52.478Z,6.95
2022-10-17T06:36:19.322Z,6.98
2022-10-17T06:38:46.062Z,7.08
2022-10-17T06:41:14.689Z,7.14
2022-10-17T06:43:48.564Z,7.21
2022-10-17T06:46:17.781Z,7.32
2022-10-17T06:48:44.859Z,7.46
2022-10-17T06:51:12.540Z,7.72
2022-10-17T06:53:40.504Z,7.96
2022-10-17T06:56:08.476Z,8.07
2022-10-17T06:58:39.076Z,8.22
2022-10-17T07:03:36.458Z,8.33
2022-10-17T07:06:03.476Z,8.20
2022-10-17T07:08:30.020Z,8.17
2022-10-17T07:10:57.300Z,8.03
2022-10-17T07:13:24.328Z,7.91
2022-10-17T07:15:51.087Z,7.85
2022-10-17T07:18:17.679Z,7.86
2022-10-17T07:20:44.201Z,7.87
2022-10-17T07:23:10.702Z,8.09
2022-10-17T07:25:40.041Z,8.24
2022-10-17T07:28:06.916Z,8.42
2022-10-17T07:30:33.470Z,8.60
2022-10-17T07:33:00.246Z,8.81
2022-10-17T07:35:26.800Z,8.96
2022-10-17T07:37:53.378Z,8.86
2022-10-17T07:40:20.045Z,8.89
2022-10-17T07:42:46.728Z,9.03
2022-10-17T07:45:13.386Z,9.01
2022-10-17T07:47:39.913Z,9.04
2022-10-17T07:50:06.834Z,9.07
2022-10-17T07:52:33.401Z,9.21
2022-10-17T07:55:00.170Z,9.39
2022-10-17T07:57:26.731Z,9.45
2022-10-17T07:59:54.506Z,9.51
2022-10-17T08:02:25.858Z,9.64
2022-10-17T08:04:53.160Z,9.78
2022-10-17T08:07:24.090Z,10.02
2022-10-17T08:09:53.567Z,10.21
2022-10-17T08:12:20.459Z,10.32
2022-10-17T08:14:48.159Z,10.45
2022-10-17T08:17:14.764Z,10.65
2022-10-17T08:19:41.375Z,10.77
2022-10-17T08:22:08.403Z,10.80
2022-10-17T08:24:35.007Z,10.80
2022-10-17T08:27:01.793Z,10.85
2022-10-17T08:29:28.471Z,10.86
2022-10-17T08:32:00.893Z,10.91
2022-10-17T08:34:28.569Z,11.18
2022-10-17T08:36:55.191Z,11.26
2022-10-17T08:39:21.998Z,11.42
2022-10-17T08:42:16.416Z,11.65
2022-10-17T08:44:57.693Z,11.91
2022-10-17T08:47:29.413Z,12.18
2022-10-17T08:50:03.192Z,12.36
2022-10-17T08:52:38.005Z,12.57
2022-10-17T08:55:13.431Z,12.88
2022-10-17T08:57:41.204Z,13.05
2022-10-17T09:00:17.112Z,13.20
2022-10-17T09:03:09.693Z,13.46
2022-10-17T09:05:45.632Z,13.70
2022-10-17T09:08:41.931Z,14.03
2022-10-17T09:11:34.182Z,14.32
2022-10-17T09:14:27.396Z,14.65
2022-10-17T09:17:15.611Z,15.01
2022-10-17T09:19:52.886Z,15.19
2022-10-17T09:22:24.898Z,15.34
2022-10-17T09:24:57.298Z,15.43
2022-10-17T09:27:28.150Z,15.75
2022-10-17T09:30:26.832Z,15.93
2022-10-17T09:33:00.656Z,16.00
2022-10-17T09:35:28.453Z,16.08
2022-10-17T09:37:55.237Z,16.27
2022-10-17T09:40:27.586Z,16.36
2022-10-17T09:42:54.181Z,16.43
2022-10-17T09:45:30.726Z,16.51
2022-10-17T09:48:09.129Z,16.48
2022-10-17T09:50:36.471Z,16.64
2022-10-17T09:53:29.461Z,16.89
2022-10-17T09:56:02.944Z,17.05
2022-10-17T09:58:50.842Z,17.14
2022-10-17T10:01:24.497Z,17.22
2022-10-17T10:04:11.665Z,17.34
2022-10-17T10:06:40.417Z,17.47
2022-10-17T10:11:56.693Z,17.86
2022-10-17T10:14:35.860Z,17.91
2022-10-17T10:17:05.091Z,17.87
2022-10-17T10:19:33.802Z,17.90
2022-10-17T10:22:02.874Z,17.90
2022-10-17T10:24:31.207Z,18.00
2022-10-17T10:27:01.564Z,18.07
2022-10-17T10:29:34.255Z,18.27
2022-10-17T10:32:11.790Z,18.37
2022-10-17T10:34:47.569Z,18.47
2022-10-17T10:37:28.542Z,18.51
2022-10-17T10:39:58.519Z,18.54
2022-10-17T10:42:32.457Z,18.69
2022-10-17T10:45:43.249Z,18.75
2022-10-17T10:48:30.759Z,18.77
2022-10-17T10:51:06.359Z,18.97
2022-10-17T10:54:05.677Z,18.91
2022-10-17T10:56:43.773Z,18.96
2022-10-17T10:59:14.165Z,19.09
2022-10-17T11:01:43.716Z,19.04
2022-10-17T11:05:07.870Z,19.35
2022-10-17T11:08:03.512Z,19.25
2022-10-17T11:10:51.201Z,19.27
2022-10-17T11:13:26.470Z,19.38
2022-10-17T11:16:22.499Z,19.42
2022-10-17T11:18:53.436Z,19.41
2022-10-17T11:21:38.557Z,19.40
2022-10-17T11:24:25.784Z,19.31
2022-10-17T11:27:04.195Z,19.29
2022-10-17T11:29:35.216Z,19.36
2022-10-17T11:32:17.908Z,19.32
2022-10-17T11:34:48.676Z,19.46
2022-10-17T11:37:21.931Z,19.26
2022-10-17T11:40:06.351Z,19.11
2022-10-17T11:42:48.277Z,19.20
2022-10-17T11:45:19.814Z,19.31
2022-10-17T11:47:51.707Z,19.23
2022-10-17T11:53:29.071Z,19.33
2022-10-17T11:56:00.007Z,19.37
2022-10-17T11:58:37.643Z,19.40
2022-10-17T12:01:21.538Z,19.39
2022-10-17T12:04:14.018Z,19.22
2022-10-17T12:07:01.138Z,19.21
2022-10-17T12:09:56.943Z,19.22
2022-10-17T12:12:27.201Z,19.26
2022-10-17T12:14:54.706Z,19.38
2022-10-17T12:17:39.691Z,19.43
2022-10-17T12:20:24.304Z,19.39
2022-10-17T12:22:56.646Z,19.47
2022-10-17T12:25:29.943Z,19.27
2022-10-17T12:28:09.739Z,19.23
2022-10-17T12:30:36.400Z,19.26
2022-10-17T12:33:23.823Z,18.99
2022-10-17T12:36:11.415Z,19.07
2022-10-17T12:38:38.071Z,19.07
2022-10-17T12:41:05.861Z,19.04
2022-10-17T12:43:38.952Z,19.01
2022-10-17T12:46:08.489Z,19.11
2022-10-17T12:48:35.698Z,19.05
2022-10-17T12:54:08.319Z,19.03
2022-10-17T12:56:36.722Z,19.07
2022-10-17T12:59:12.091Z,19.13
2022-10-17T13:01:40.599Z,19.06
2022-10-17T13:04:10.705Z,19.01
2022-10-17T13:06:44.923Z,19.05
2022-10-17T13:09:28.703Z,18.98
2022-10-17T13:11:58.261Z,18.98
2022-10-17T13:14:26.714Z,18.98
2022-10-17T13:17:01.840Z,18.98
2022-10-17T13:19:39.859Z,18.92
2022-10-17T13:22:17.926Z,18.88
2022-10-17T13:24:44.979Z,18.80
2022-10-17T13:27:29.736Z,18.70
2022-10-17T13:29:58.080Z,18.59
2022-10-17T13:32:27.150Z,18.53
2022-10-17T13:35:11.969Z,18.41
2022-10-17T13:37:41.335Z,18.43
2022-10-17T13:40:40.758Z,18.49
2022-10-17T13:43:04.194Z,18.52
2022-10-17T13:45:34.010Z,18.45
2022-10-17T13:48:03.938Z,18.37
2022-10-17T13:50:44.250Z,18.33
2022-10-17T13:53:21.288Z,18.36
2022-10-17T13:56:26.920Z,18.31
2022-10-17T13:58:51.999Z,18.26
2022-10-17T14:01:20.393Z,18.23
2022-10-17T14:03:51.756Z,18.12
2022-10-17T14:06:25.764Z,18.08
2022-10-17T14:08:52.296Z,18.04
2022-10-17T14:11:41.558Z,18.01
2022-10-17T14:14:20.578Z,17.93
2022-10-17T14:16:47.363Z,17.85
2022-10-17T14:19:36.028Z,17.82
2022-10-17T14:22:21.019Z,17.76
2022-10-17T14:24:48.724Z,17.61
2022-10-17T14:27:52.546Z,17.46
2022-10-17T14:30:55.301Z,17.34
2022-10-17T14:33:27.583Z,17.26
2022-10-17T14:36:01.222Z,17.19
2022-10-17T14:38:29.603Z,17.13
2022-10-17T14:41:41.411Z,17.06
2022-10-17T14:44:15.562Z,16.93
2022-10-17T14:46:49.707Z,16.83
2022-10-17T14:49:24.689Z,16.73
2022-10-17T14:52:18.867Z,16.63
2022-10-17T14:54:56.281Z,16.55
2022-10-17T14:57:29.340Z,16.49
2022-10-17T14:59:57.151Z,16.35
2022-10-17T15:02:26.106Z,16.27
2022-10-17T15:04:53.587Z,16.20
2022-10-17T15:07:24.074Z,16.15
2022-10-17T15:09:52.762Z,16.07
2022-10-17T15:12:22.217Z,15.95
2022-10-17T15:14:49.142Z,15.84
2022-10-17T15:17:22.390Z,15.73
2022-10-17T15:19:50.490Z,15.65
2022-10-17T15:22:18.388Z,15.52
2022-10-17T15:24:47.981Z,15.44
2022-10-17T15:27:21.649Z,15.28
2022-10-17T15:29:49.175Z,15.12
2022-10-17T15:32:16.206Z,14.99
2022-10-17T15:34:42.772Z,14.83
2022-10-17T15:37:18.494Z,14.63
2022-10-17T15:39:46.846Z,14.46
2022-10-17T15:42:13.365Z,14.29
2022-10-17T15:44:43.841Z,14.19
2022-10-17T15:47:22.583Z,14.06
2022-10-17T15:49:49.275Z,14.01
2022-10-17T15:52:16.242Z,13.95
2022-10-17T15:54:42.810Z,13.79
2022-10-17T15:57:18.625Z,13.67
2022-10-17T15:59:47.196Z,13.56
2022-10-17T16:02:18.582Z,13.42
2022-10-17T16:04:45.282Z,13.35
2022-10-17T16:07:12.074Z,13.23
2022-10-17T16:09:38.919Z,13.18
2022-10-17T16:12:07.380Z,13.14
2022-10-17T16:14:34.316Z,13.05
2022-10-17T16:17:01.233Z,12.97
2022-10-17T16:19:29.952Z,12.84
2022-10-17T16:22:04.342Z,12.75
2022-10-17T16:24:31.264Z,12.69
2022-10-17T16:26:57.987Z,12.61
2022-10-17T16:29:24.522Z,12.55
2022-10-17T16:31:51.089Z,12.55
2022-10-17T16:34:17.693Z,12.50
2022-10-17T16:36:44.322Z,12.47
2022-10-17T16:39:11.016Z,12.43
2022-10-17T16:41:39.288Z,12.38
2022-10-17T16:44:11.260Z,12.38
2022-10-17T16:46:38.073Z,12.29
2022-10-17T16:49:05.965Z,12.29
2022-10-17T16:51:35.974Z,12.24
2022-10-17T16:54:04.519Z,12.15
2022-10-17T16:56:32.714Z,12.16
2022-10-17T16:59:00.781Z,12.10
2022-10-17T17:01:29.395Z,12.05
2022-10-17T17:03:56.809Z,12.00
2022-10-17T17:06:26.895Z,12.02
2022-10-17T17:08:54.617Z,11.88
2022-10-17T17:11:24.517Z,11.85
2022-10-17T17:13:51.119Z,11.89
2022-10-17T17:16:23.359Z,11.80
2022-10-17T17:18:54.575Z,11.67
2022-10-17T17:21:21.072Z,11.65
2022-10-17T17:23:47.940Z,11.58
2022-10-17T17:26:17.395Z,11.51
2022-10-17T17:28:44.272Z,11.48
2022-10-17T17:31:14.137Z,11.47
2022-10-17T17:33:42.030Z,11.45
2022-10-17T17:36:12.273Z,11.40
2022-10-17T17:38:41.210Z,11.37
2022-10-17T17:41:07.732Z,11.35
2022-10-17T17:43:35.776Z,11.31
2022-10-17T17:46:05.028Z,11.29
2022-10-17T17:48:31.690Z,11.26
2022-10-17T17:51:02.704Z,11.19
2022-10-17T17:53:29.302Z,11.16
2022-10-17T17:56:10.976Z,11.11
2022-10-17T17:58:37.635Z,11.07
2022-10-17T18:01:14.353Z,11.04
2022-10-17T18:03:41.790Z,11.03
2022-10-17T18:06:08.993Z,10.96
2022-10-17T18:08:36.067Z,10.92
2022-10-17T18:11:03.331Z,10.86
2022-10-17T18:13:30.079Z,10.80
2022-10-17T18:16:01.413Z,10.75
2022-10-17T18:18:29.823Z,10.71
2022-10-17T18:20:56.687Z,10.68
2022-10-17T18:23:23.929Z,10.62
2022-10-17T18:25:58.716Z,10.59
2022-10-17T18:28:25.434Z,10.57
2022-10-17T18:30:52.216Z,10.52
2022-10-17T18:33:18.863Z,10.54
2022-10-17T18:35:45.797Z,10.56
2022-10-17T18:38:12.496Z,10.55
2022-10-17T18:40:39.018Z,10.57
2022-10-17T18:43:05.556Z,10.54
2022-10-17T18:45:32.164Z,10.46
2022-10-17T18:47:58.867Z,10.50
2022-10-17T18:50:25.829Z,10.51
2022-10-17T18:52:52.346Z,10.41
2022-10-17T18:55:19.793Z,10.41
2022-10-17T18:57:50.068Z,10.41
2022-10-17T19:00:17.773Z,10.41
2022-10-17T19:02:44.502Z,10.43
2022-10-17T19:05:11.067Z,10.36
2022-10-17T19:07:37.582Z,10.32
2022-10-17T19:10:04.328Z,10.29
2022-10-17T19:12:31.011Z,10.24
2022-10-17T19:14:57.569Z,10.20
2022-10-17T19:17:24.056Z,10.11
2022-10-17T19:19:52.308Z,10.03
2022-10-17T19:22:19.030Z,10.01
2022-10-17T19:24:45.566Z,10.05
2022-10-17T19:27:12.425Z,10.03
2022-10-17T19:29:43.463Z,10.08
2022-10-17T19:32:15.705Z,10.04
2022-10-17T19:34:44.719Z,9.97
2022-10-17T19:37:11.282Z,9.95
2022-10-17T19:39:37.877Z,9.90
2022-10-17T19:42:06.862Z,9.85
2022-10-17T19:44:34.291Z,9.86
2022-10-17T19:47:00.861Z,9.89
2022-10-17T19:49:27.446Z,9.94
2022-10-17T19:51:54.004Z,9.97
2022-10-17T19:54:20.513Z,10.03
2022-10-17T19:56:47.535Z,10.07
2022-10-17T19:59:15.931Z,10.14
2022-10-17T20:01:43.391Z,10.20
2022-10-17T20:04:11.135Z,10.22
2022-10-17T20:06:39.079Z,10.29
2022-10-17T20:09:07.334Z,10.33
2022-10-17T20:11:35.553Z,10.38
2022-10-17T20:14:02.359Z,10.45
2022-10-17T20:16:33.916Z,10.37
2022-10-17T20:19:07.492Z,10.39
2022-10-17T20:21:37.336Z,10.40
2022-10-17T20:24:07.023Z,10.35
2022-10-17T20:26:39.025Z,10.22
2022-10-17T20:29:18.422Z,10.17
2022-10-17T20:31:46.368Z,10.20
2022-10-17T20:34:15.452Z,10.28
2022-10-17T20:36:42.496Z,10.28
2022-10-17T20:39:11.242Z,10.22
2022-10-17T20:41:37.909Z,10.39
2022-10-17T20:44:04.798Z,10.46
2022-10-17T20:46:44.822Z,10.48
2022-10-17T20:49:16.852Z,10.56
2022-10-17T20:51:43.842Z,10.62
2022-10-17T20:54:11.680Z,10.58
2022-10-17T20:56:39.101Z,10.60
2022-10-17T20:59:11.003Z,10.58
2022-10-17T21:01:37.612Z,10.67
2022-10-17T21:06:52.218Z,10.64
2022-10-17T21:09:19.398Z,10.53
2022-10-17T21:11:46.041Z,10.53
2022-10-17T21:14:12.706Z,10.55
2022-10-17T21:16:40.282Z,10.67
2022-10-17T21:19:07.128Z,10.82
2022-10-17T21:21:36.241Z,10.75
2022-10-17T21:24:05.737Z,10.72
2022-10-17T21:26:34.235Z,10.74
2022-10-17T21:29:05.474Z,10.70
2022-10-17T21:31:33.774Z,10.73
2022-10-17T21:34:04.998Z,10.77
2022-10-17T21:36:31.527Z,10.76
2022-10-17T21:38:58.436Z,10.77
2022-10-17T21:41:27.689Z,10.72
2022-10-17T21:44:01.318Z,10.77
2022-10-17T21:46:28.939Z,10.71
2022-10-17T21:48:56.197Z,10.59
2022-10-17T21:51:24.535Z,10.50
2022-10-17T21:53:52.668Z,10.40
2022-10-17T21:56:22.078Z,10.41
2022-10-17T21:58:50.048Z,10.32
2022-10-17T22:01:19.462Z,10.16
2022-10-17T22:03:52.425Z,9.81
2022-10-17T22:09:20.742Z,9.23
2022-10-17T22:11:49.136Z,9.15
2022-10-17T22:14:18.584Z,9.03
2022-10-17T22:16:46.536Z,8.99
2022-10-17T22:19:16.031Z,9.03
2022-10-17T22:21:42.693Z,9.10
2022-10-17T22:24:13.859Z,9.13
2022-10-17T22:26:40.828Z,9.12
2022-10-17T22:29:08.500Z,9.02
2022-10-17T22:31:36.284Z,9.13
2022-10-17T22:34:05.117Z,9.19
2022-10-17T22:36:32.529Z,9.30
2022-10-17T22:38:59.128Z,9.29
2022-10-17T22:41:25.686Z,9.44
2022-10-17T22:43:52.268Z,9.48
2022-10-17T22:46:18.910Z,9.53
2022-10-17T22:48:45.482Z,9.48
2022-10-17T22:51:12.270Z,9.43
2022-10-17T22:53:39.201Z,9.40
2022-10-17T22:56:09.379Z,9.33
2022-10-17T22:58:35.916Z,9.27
2022-10-17T23:01:03.948Z,9.33
2022-10-17T23:03:31.419Z,9.31
2022-10-17T23:05:58.740Z,9.38
2022-10-17T23:08:26.262Z,9.48
2022-10-17T23:10:53.179Z,9.57
2022-10-17T23:13:21.404Z,9.64
2022-10-17T23:15:56.319Z,9.57
2022-10-17T23:18:24.613Z,9.55
2022-10-17T23:20:51.673Z,9.63
2022-10-17T23:23:18.947Z,9.56
2022-10-17T23:25:45.956Z,9.64
2022-10-17T23:28:12.685Z,9.56
2022-10-17T23:30:39.979Z,9.43
2022-10-17T23:33:06.969Z,9.44
2022-10-17T23:35:34.182Z,9.40
2022-10-17T23:38:00.679Z,9.50
2022-10-17T23:40:28.070Z,9.45
2022-10-17T23:42:56.216Z,9.35
2022-10-17T23:45:22.895Z,9.31
2022-10-17T23:47:49.547Z,9.23
2022-10-17T23:50:16.464Z,9.23
2022-10-17T23:52:43.505Z,9.18
2022-10-17T23:55:10.723Z,9.20
2022-10-17T23:57:37.239Z,9.16
